DW0344 Weather Reports


time (UTC)temp
C
wind
direction
speed
KPH
gust
KPH
rain 1hr
cm
rain 24hr
cm
rain mn
cm
humidity
%
barometer
mb
20190420064601 27 117 1.6 11.3 0.00 0.00 0.00 31 1018.0
20190420063037 27 156 0.0 4.8 0.00 0.00 0.00 31 1018.1
20190420061528 28 157 0.0 1.6 0.00 0.00 0.00 30 1018.1
20190420060026 28 158 1.6 6.4 0.00 0.00 0.00 30 1018.3
20190420054519 28 133 6.4 11.3 0.00 0.00 0.00 29 1018.4
20190420053022 28 153 0.0 6.4 0.00 0.00 0.00 29 1018.6
20190420051537 28 217 0.0 0.0 0.00 0.00 0.00 30 1018.9
20190420050015 28 260 0.0 6.4 0.00 0.00 0.00 29 1019.0
20190420044509 28 330 4.8 9.7 0.00 0.00 0.00 30 1019.0
20190420043009 28 326 0.0 8.0 0.00 0.00 0.00 29 1019.3
20190420041707 28 325 4.8 9.7 0.00 0.00 0.00 30 1019.6
20190420040210 27 229 0.0 1.6 0.00 0.00 0.00 32 1019.8
20190420034655 26 118 0.0 4.8 0.00 0.00 0.00 32 1020.0
20190420033121 26 113 1.6 8.0 0.00 0.00 0.00 31 1020.2
20190420031614 26 150 0.0 8.0 0.00 0.00 0.00 33 1020.6
20190420030125 25 229 0.0 8.0 0.00 0.00 0.00 33 1020.8
20190420024632 24 157 0.0 4.8 0.00 0.00 0.00 36 1021.2
20190420023102 23 175 0.0 6.4 0.00 0.00 0.00 37 1021.4
20190420021558 22 200 0.0 8.0 0.00 0.00 0.00 39 1021.8
20190420020109 21 184 0.0 0.0 0.00 0.00 0.00 42 1022.0
20190420014535 20 184 0.0 0.0 0.00 0.00 0.00 44 1022.6
20190420013040 19 184 0.0 0.0 0.00 0.00 0.00 46 1022.7
20190420011515 18 180 0.0 0.0 0.00 0.00 0.00 48 1023.1
20190420010008 17 180 0.0 0.0 0.00 0.00 0.00 51 1023.2
20190420004504 16 178 0.0 0.0 0.00 0.00 0.00 53 1023.4
20190420003414 15 178 0.0 0.0 0.00 0.00 0.00 55 1023.5
20190420001733 15 176 0.0 0.0 0.00 0.00 0.00 59 1023.8
20190420000157 14 107 0.0 0.0 0.00 0.00 0.00 57 1023.9
20190419234635 13 107 0.0 0.0 0.00 0.00 0.00 60 1024.1
20190419233214 12 107 0.0 0.0 0.00 0.00 0.00 67 1024.3
20190419231608 10 107 0.0 0.0 0.00 0.00 0.00 71 1024.4
20190419230139 9 107 0.0 0.0 0.00 0.00 0.00 72 1024.6
20190419224621 8 107 0.0 0.0 0.00 0.00 0.00 75 1024.7
20190419223118 7 106 0.0 0.0 0.00 0.00 0.00 84 1024.8
20190419221631 6 106 0.0 0.0 0.00 0.00 0.00 87 1024.7
20190419220101 5 106 0.0 1.6 0.00 0.00 0.00 87 1024.8
20190419214603 4 330 0.0 0.0 0.00 0.00 0.00 87 1024.7
20190419213114 3 331 0.0 0.0 0.00 0.00 0.00 86 1024.6
20190419211624 3 331 0.0 0.0 0.00 0.00 0.00 84 1024.6
20190419210041 3 331 0.0 0.0 0.00 0.00 0.00 84 1024.3
20190419204516 3 309 0.0 0.0 0.00 0.00 0.00 84 1024.1
20190419203017 3 309 0.0 0.0 0.00 0.00 0.00 84 1024.1
20190419201530 3 309 0.0 0.0 0.00 0.00 0.00 84 1024.1
20190419200013 3 309 0.0 0.0 0.00 0.00 0.00 83 1024.0
20190419193019 3 309 0.0 0.0 0.00 0.00 0.00 82 1023.9
20190419191514 3 309 0.0 0.0 0.00 0.00 0.00 82 1023.9
20190419190024 3 309 0.0 0.0 0.00 0.00 0.00 81 1023.9
20190419184504 3 309 0.0 0.0 0.00 0.00 0.00 81 1023.7
20190419183005 3 309 0.0 0.0 0.00 0.00 0.00 80 1023.7
20190419181717 3 309 0.0 0.0 0.00 0.00 0.00 79 1023.8
20190419180134 3 309 0.0 0.0 0.00 0.00 0.00 80 1023.8
20190419174739 3 309 0.0 0.0 0.00 0.00 0.00 78 1023.6
20190419173201 4 309 0.0 0.0 0.00 0.00 0.00 77 1023.6
20190419171732 4 309 0.0 0.0 0.00 0.00 0.00 77 1023.5
20190419170136 4 309 0.0 0.0 0.00 0.00 0.00 76 1023.5
20190419164630 4 309 0.0 0.0 0.00 0.00 0.00 75 1023.6
20190419163139 5 309 0.0 0.0 0.00 0.00 0.00 74 1023.7
20190419161633 5 309 0.0 0.0 0.00 0.00 0.00 74 1023.6
20190419160119 5 309 0.0 0.0 0.00 0.00 0.00 74 1023.7
20190419154614 5 309 0.0 0.0 0.00 0.00 0.00 72 1023.9
20190419153207 5 309 0.0 0.0 0.00 0.00 0.00 71 1023.9
20190419151658 5 309 0.0 0.0 0.00 0.00 0.00 71 1023.7
20190419150102 5 309 0.0 0.0 0.00 0.00 0.00 69 1024.0
20190419144545 6 309 0.0 0.0 0.00 0.00 0.00 69 1024.0
20190419143100 6 309 0.0 0.0 0.00 0.00 0.00 68 1024.0
20190419141641 6 309 0.0 0.0 0.00 0.00 0.00 67 1024.1
20190419140122 6 309 0.0 0.0 0.00 0.00 0.00 67 1024.0
20190419134600 6 309 0.0 0.0 0.00 0.00 0.00 65 1023.9
20190419133110 7 309 0.0 0.0 0.00 0.00 0.00 65 1023.9
20190419131552 7 309 0.0 0.0 0.00 0.00 0.00 64 1023.9
20190419130036 7 309 0.0 0.0 0.00 0.00 0.00 63 1024.0
20190419124546 7 309 0.0 0.0 0.00 0.00 0.00 64 1024.1
20190419123123 8 309 0.0 0.0 0.00 0.00 0.00 61 1024.3
20190419121548 8 309 0.0 0.0 0.00 0.00 0.00 62 1024.2
20190419120052 8 309 0.0 0.0 0.00 0.00 0.00 58 1024.1
20190419114543 9 309 0.0 0.0 0.00 0.00 0.00 58 1024.2
20190419113059 9 309 0.0 0.0 0.00 0.00 0.00 57 1024.0
20190419111549 10 309 0.0 0.0 0.00 0.00 0.00 55 1024.0
20190419110029 10 309 0.0 0.0 0.00 0.00 0.00 55 1023.9
20190419104551 10 309 0.0 0.0 0.00 0.00 0.00 53 1023.7
20190419103042 11 309 0.0 0.0 0.00 0.00 0.00 51 1023.7
20190419101528 11 309 0.0 0.0 0.00 0.00 0.00 50 1023.3
20190419100105 12 309 0.0 0.0 0.00 0.00 0.00 47 1023.2
20190419094552 12 309 0.0 0.0 0.00 0.00 0.00 47 1023.2
20190419093043 13 309 0.0 0.0 0.00 0.00 0.00 45 1023.0
20190419090034 15 309 0.0 0.0 0.00 0.00 0.00 44 1022.7
20190419084530 15 309 0.0 0.0 0.00 0.00 0.00 40 1022.8
20190419083021 16 309 0.0 0.0 0.00 0.00 0.00 38 1022.7
20190419081605 18 309 0.0 0.0 0.00 0.00 0.00 33 1022.5
20190419080028 20 309 0.0 0.0 0.00 0.00 0.00 30 1022.2
20190419074521 21 309 0.0 0.0 0.00 0.00 0.00 26 1022.0
20190419073016 23 309 0.0 0.0 0.00 0.00 0.00 21 1022.0
20190419071514 25 309 0.0 4.8 0.00 0.00 0.00 15 1021.8
20190419070048 25 301 0.0 6.4 0.00 0.00 0.00 15 1021.6